Time;durP1;ratioP1;P1;durP2;ratioP2;P2;SDS_P1;SDS_P2;PMS_P1;PMS_P2;Temp;Humidity;BMP_temperature;BMP_pressure;BME280_temperature;BME280_humidity;BME280_pressure;Samples;Min_cycle;Max_cycle;Signal;HPM_P1;HPM_P2
2022/09/27 00:01:30;;;;;;;0.52;0.52;;;9.70;99.90;;;;;;5089110;28;20036;-84
2022/09/27 00:03:56;;;;;;;0.40;0.40;;;9.60;99.90;;;;;;5090939;28;20504;-82
2022/09/27 00:06:25;;;;;;;0.43;0.43;;;9.70;99.90;;;;;;5090885;28;20044;-83
2022/09/27 00:08:51;;;;;;;0.40;0.40;;;9.60;99.90;;;;;;5089939;28;20040;-81
2022/09/27 00:11:27;;;;;;;0.30;0.30;;;9.60;99.90;;;;;;5089267;28;20071;-83
2022/09/27 00:13:54;;;;;;;0.52;0.52;;;9.60;99.90;;;;;;5084475;28;20123;-83
2022/09/27 00:16:21;;;;;;;0.50;0.50;;;9.50;99.90;;;;;;5073449;28;20051;-83
2022/09/27 00:18:47;;;;;;;0.40;0.40;;;9.50;99.90;;;;;;5089336;28;20040;-82
2022/09/27 00:21:13;;;;;;;1.05;1.05;;;9.50;99.90;;;;;;5076341;28;20067;-82
2022/09/27 00:23:39;;;;;;;;;;;9.50;99.90;;;;;;5080376;28;20032;-82
2022/09/27 00:26:06;;;;;;;0.50;0.50;;;9.40;99.90;;;;;;5088067;28;19969;-83
2022/09/27 00:28:32;;;;;;;0.50;0.50;;;9.40;99.90;;;;;;5076429;28;20489;-83
2022/09/27 00:31:16;;;;;;;0.60;0.60;;;9.50;99.90;;;;;;5077271;28;20148;-84
2022/09/27 00:33:41;;;;;;;0.40;0.40;;;9.40;99.90;;;;;;5090449;28;20105;-84
2022/09/27 00:36:08;;;;;;;0.57;0.57;;;9.40;99.90;;;;;;5091126;28;20041;-83
2022/09/27 00:38:34;;;;;;;0.50;0.50;;;9.40;99.90;;;;;;5091214;28;20058;-83
2022/09/27 00:41:00;;;;;;;0.40;0.40;;;9.40;99.90;;;;;;5093764;28;20127;-83
2022/09/27 00:43:25;;;;;;;0.50;0.50;;;9.50;99.90;;;;;;5084910;28;20045;-84
2022/09/27 00:46:02;;;;;;;0.45;0.45;;;9.50;99.90;;;;;;5089487;28;20043;-83
2022/09/27 00:48:32;;;;;;;0.40;0.40;;;9.40;99.90;;;;;;5095873;28;20040;-83
2022/09/27 00:51:01;;;;;;;0.40;0.40;;;9.40;99.90;;;;;;5085863;28;20040;-84
2022/09/27 00:53:45;;;;;;;0.50;0.50;;;9.40;99.90;;;;;;5091608;28;20050;-84
2022/09/27 00:56:19;;;;;;;0.30;0.30;;;9.30;99.90;;;;;;5090039;28;20119;-84
2022/09/27 00:59:02;;;;;;;0.50;0.50;;;9.30;99.90;;;;;;5077373;28;20109;-86
2022/09/27 01:01:29;;;;;;;0.40;0.40;;;9.30;99.90;;;;;;5076113;28;20044;-83
2022/09/27 01:04:08;;;;;;;0.50;0.50;;;9.30;99.90;;;;;;5088040;28;20050;-83
2022/09/27 01:06:40;;;;;;;0.57;0.57;;;9.30;99.90;;;;;;5106162;28;20067;-82
2022/09/27 01:09:08;;;;;;;0.45;0.45;;;9.30;99.90;;;;;;5094987;28;20043;-83
2022/09/27 01:12:00;;;;;;;0.40;0.40;;;9.20;99.90;;;;;;5093670;28;20108;-81
2022/09/27 01:14:59;;;;;;;0.40;0.40;;;9.20;99.90;;;;;;5092348;28;20072;-82
2022/09/27 01:17:55;;;;;;;0.50;0.50;;;9.30;99.90;;;;;;5067661;28;20449;-83
2022/09/27 01:20:39;;;;;;;0.38;0.38;;;9.30;99.90;;;;;;5088767;28;20605;-84
2022/09/27 01:23:36;;;;;;;0.50;0.50;;;9.30;99.90;;;;;;5086291;28;20551;-82
2022/09/27 01:26:08;;;;;;;0.60;0.60;;;9.30;99.90;;;;;;5075099;28;20032;-85
2022/09/27 01:29:22;;;;;;;0.52;0.52;;;9.30;99.90;;;;;;5064151;28;20643;-85
2022/09/27 01:32:20;;;;;;;0.60;0.60;;;9.30;99.90;;;;;;5068606;28;20032;-86
2022/09/27 01:35:16;;;;;;;0.43;0.43;;;9.30;99.90;;;;;;5089664;28;20035;-84
2022/09/27 01:38:08;;;;;;;0.47;0.47;;;9.30;99.90;;;;;;5091887;28;20040;-86
2022/09/27 01:40:58;;;;;;;0.40;0.40;;;9.40;99.90;;;;;;5070041;28;20088;-83
2022/09/27 01:43:32;;;;;;;0.50;0.50;;;9.40;99.90;;;;;;5104275;28;20049;-84
2022/09/27 01:46:16;;;;;;;0.45;0.45;;;9.40;99.90;;;;;;5081073;28;20036;-83
2022/09/27 01:48:47;;;;;;;0.40;0.40;;;9.50;99.90;;;;;;5082436;28;20504;-85
2022/09/27 01:51:24;;;;;;;0.60;0.60;;;9.50;99.90;;;;;;5080413;28;20048;-83
2022/09/27 01:53:58;;;;;;;0.60;0.60;;;9.50;99.90;;;;;;5092838;28;20055;-83
2022/09/27 01:56:50;;;;;;;0.40;0.40;;;9.60;99.90;;;;;;5084466;28;20044;-84
2022/09/27 01:59:44;;;;;;;0.50;0.50;;;9.60;99.90;;;;;;5083869;28;20047;-84
2022/09/27 02:02:11;;;;;;;0.40;0.40;;;9.60;99.90;;;;;;5089585;28;20052;-85
2022/09/27 02:04:39;;;;;;;0.50;0.50;;;9.60;99.90;;;;;;5076210;28;20036;-85
2022/09/27 02:07:19;;;;;;;0.50;0.50;;;9.60;99.90;;;;;;5092597;28;20097;-84
2022/09/27 02:09:49;;;;;;;0.40;0.40;;;9.60;99.90;;;;;;5090420;28;20051;-83
2022/09/27 02:12:20;;;;;;;0.50;0.50;;;9.50;99.90;;;;;;5083170;28;20044;-83
2022/09/27 02:14:56;;;;;;;0.43;0.43;;;9.50;99.90;;;;;;5092100;28;20050;-85
2022/09/27 02:17:58;;;;;;;0.45;0.45;;;9.40;99.90;;;;;;5075103;28;20044;-84
2022/09/27 02:20:32;;;;;;;0.50;0.50;;;9.30;99.90;;;;;;5090720;28;20055;-80
2022/09/27 02:23:10;;;;;;;0.60;0.60;;;9.30;99.90;;;;;;5073086;28;20031;-82
2022/09/27 02:25:56;;;;;;;1.95;1.77;;;9.30;99.90;;;;;;5085352;28;20353;-82
2022/09/27 02:28:24;;;;;;;0.50;0.50;;;9.30;99.90;;;;;;5072594;28;20040;-82
2022/09/27 02:30:50;;;;;;;0.50;0.50;;;9.20;99.90;;;;;;5080140;28;20059;-84
2022/09/27 02:33:20;;;;;;;0.50;0.50;;;9.20;99.90;;;;;;5088684;28;20052;-81
2022/09/27 02:35:47;;;;;;;0.47;0.47;;;9.10;99.90;;;;;;5080190;28;20075;-81
2022/09/27 02:38:12;;;;;;;0.50;0.50;;;9.10;99.90;;;;;;5077467;28;20048;-83
2022/09/27 02:40:44;;;;;;;0.60;0.60;;;9.10;99.90;;;;;;5090633;28;20047;-82
2022/09/27 02:43:11;;;;;;;0.45;0.45;;;9.10;99.90;;;;;;5089804;28;20444;-82
2022/09/27 02:45:58;;;;;;;0.60;0.60;;;9.10;99.90;;;;;;5091098;28;20043;-81
2022/09/27 02:48:33;;;;;;;0.40;0.40;;;9.10;99.90;;;;;;5056511;28;20131;-81
2022/09/27 02:51:14;;;;;;;0.50;0.50;;;9.20;99.90;;;;;;5084205;28;20072;-81
2022/09/27 02:53:59;;;;;;;0.40;0.40;;;9.10;99.90;;;;;;5087768;28;20397;-82
2022/09/27 02:56:51;;;;;;;0.85;0.85;;;9.10;99.90;;;;;;5083508;28;20044;-81
2022/09/27 02:59:40;;;;;;;0.50;0.50;;;9.10;99.90;;;;;;5081332;28;20400;-81
2022/09/27 03:02:16;;;;;;;0.50;0.50;;;9.10;99.90;;;;;;5071796;28;20393;-81
2022/09/27 03:05:15;;;;;;;0.55;0.55;;;9.10;99.90;;;;;;5094882;28;20499;-81
2022/09/27 03:07:41;;;;;;;1.00;0.93;;;9.10;99.90;;;;;;5089984;28;20117;-81
2022/09/27 03:10:06;;;;;;;;;;;9.00;99.90;;;;;;5088513;28;20551;-82
2022/09/27 03:12:33;;;;;;;0.43;0.43;;;9.20;99.90;;;;;;5050058;28;19942;-83
2022/09/27 03:14:59;;;;;;;;;;;9.10;99.90;;;;;;5076060;28;20044;-84
2022/09/27 03:17:25;;;;;;;0.47;0.47;;;9.20;99.90;;;;;;5077834;28;19934;-84
2022/09/27 03:19:51;;;;;;;;;;;9.10;99.90;;;;;;5073928;28;20048;-84
2022/09/27 03:22:17;;;;;;;0.52;0.52;;;9.20;99.90;;;;;;5089492;28;20395;-84
2022/09/27 03:24:43;;;;;;;0.60;0.60;;;9.10;99.90;;;;;;5070706;28;20051;-84
2022/09/27 03:27:09;;;;;;;0.50;0.50;;;9.10;99.90;;;;;;5070673;28;20143;-84
2022/09/27 03:29:35;;;;;;;0.43;0.43;;;9.00;99.90;;;;;;5085914;28;20036;-84
2022/09/27 03:32:03;;;;;;;0.50;0.50;;;9.00;99.90;;;;;;5070441;28;20086;-82
2022/09/27 03:34:29;;;;;;;0.30;0.30;;;8.90;99.90;;;;;;5054830;28;20116;-82
2022/09/27 03:36:55;;;;;;;0.40;0.40;;;8.90;99.90;;;;;;5070541;28;20127;-84
2022/09/27 03:39:21;;;;;;;;;;;8.90;99.90;;;;;;5083428;28;20051;-84
2022/09/27 03:41:46;;;;;;;0.60;0.60;;;8.90;99.90;;;;;;5073609;28;19920;-83
2022/09/27 03:44:14;;;;;;;0.40;0.40;;;8.90;99.90;;;;;;5066846;28;20142;-85
2022/09/27 03:46:39;;;;;;;0.47;0.47;;;8.90;99.90;;;;;;5063658;28;20044;-84
2022/09/27 03:49:05;;;;;;;0.50;0.50;;;8.90;99.90;;;;;;5073752;28;20396;-83
2022/09/27 03:51:31;;;;;;;0.55;0.55;;;8.90;99.90;;;;;;5054986;28;20044;-84
2022/09/27 03:53:56;;;;;;;0.50;0.50;;;8.90;99.90;;;;;;5058627;28;20075;-83
2022/09/27 03:56:22;;;;;;;;;;;8.90;99.90;;;;;;5087969;28;20040;-82
2022/09/27 03:58:48;;;;;;;0.57;0.57;;;8.90;99.90;;;;;;5089116;28;19916;-83
2022/09/27 04:01:14;;;;;;;0.55;0.55;;;8.90;99.90;;;;;;5048094;28;20080;-84
2022/09/27 04:03:39;;;;;;;0.50;0.50;;;8.90;99.90;;;;;;5092849;28;20063;-83
2022/09/27 04:06:06;;;;;;;0.50;0.50;;;8.90;99.90;;;;;;5077405;28;20058;-82
2022/09/27 04:08:32;;;;;;;0.50;0.50;;;9.00;99.90;;;;;;5070915;28;20036;-83
2022/09/27 04:10:58;;;;;;;0.30;0.30;;;9.00;99.90;;;;;;5060732;28;20115;-83
2022/09/27 04:13:24;;;;;;;0.40;0.40;;;9.00;99.90;;;;;;5076641;28;20503;-83
2022/09/27 04:15:50;;;;;;;0.60;0.60;;;9.00;99.90;;;;;;5065884;28;20043;-84
2022/09/27 04:18:16;;;;;;;0.50;0.50;;;9.40;99.90;;;;;;5066093;28;20131;-83
2022/09/27 04:20:41;;;;;;;0.40;0.40;;;9.00;99.90;;;;;;5092803;28;20182;-84
2022/09/27 04:23:07;;;;;;;0.50;0.50;;;9.00;99.90;;;;;;5050128;28;20123;-83
2022/09/27 04:25:35;;;;;;;0.40;0.40;;;9.00;99.90;;;;;;5079678;28;20048;-85
2022/09/27 04:28:01;;;;;;;0.43;0.43;;;9.00;99.90;;;;;;5078806;28;20044;-85
2022/09/27 04:30:27;;;;;;;;;;;9.00;99.90;;;;;;5073477;28;20040;-84
2022/09/27 04:32:53;;;;;;;0.40;0.40;;;9.00;99.90;;;;;;5085082;28;19923;-86
2022/09/27 04:38:09;;;;;;;0.57;0.57;;;9.10;99.90;;;;;;5080514;28;20412;-83
2022/09/27 04:40:35;;;;;;;0.73;0.73;;;9.10;99.90;;;;;;5092575;28;20059;-83
2022/09/27 04:43:02;;;;;;;0.32;0.32;;;9.10;99.90;;;;;;5076272;28;20052;-85
2022/09/27 04:45:30;;;;;;;0.52;0.52;;;9.10;99.90;;;;;;5075549;28;20040;-84
2022/09/27 04:47:55;;;;;;;0.40;0.40;;;9.00;99.90;;;;;;5076231;28;20438;-86
2022/09/27 04:50:21;;;;;;;0.50;0.50;;;9.00;99.90;;;;;;5089127;28;20051;-86
2022/09/27 04:52:52;;;;;;;0.60;0.60;;;8.90;99.90;;;;;;5093995;28;20044;-85
2022/09/27 04:55:20;;;;;;;0.60;0.60;;;8.90;99.90;;;;;;5058642;28;20076;-85
2022/09/27 04:57:46;;;;;;;0.45;0.45;;;8.90;99.90;;;;;;5092464;28;20554;-87
2022/09/27 05:00:12;;;;;;;;;;;8.90;99.90;;;;;;5087343;28;20048;-87
2022/09/27 05:02:38;;;;;;;0.30;0.30;;;8.90;99.90;;;;;;5090990;28;19969;-86
2022/09/27 05:05:05;;;;;;;;;;;8.90;99.90;;;;;;5047734;28;20448;-86
2022/09/27 05:07:33;;;;;;;0.60;0.60;;;8.90;99.90;;;;;;5107962;28;20010;-85
2022/09/27 05:09:59;;;;;;;0.50;0.50;;;8.90;99.90;;;;;;5064482;28;20044;-85
2022/09/27 05:12:25;;;;;;;0.60;0.60;;;8.90;99.90;;;;;;5094097;28;20646;-84
2022/09/27 05:14:52;;;;;;;0.50;0.50;;;9.00;99.90;;;;;;5053545;28;20051;-85
2022/09/27 05:17:19;;;;;;;0.63;0.63;;;9.00;99.90;;;;;;5053674;28;20116;-85
2022/09/27 05:19:45;;;;;;;0.50;0.50;;;9.00;99.90;;;;;;5071705;28;20064;-84
2022/09/27 05:22:11;;;;;;;0.50;0.50;;;8.90;99.90;;;;;;5083192;28;20080;-85
2022/09/27 05:24:38;;;;;;;0.50;0.50;;;8.90;99.90;;;;;;5088771;28;20036;-83
2022/09/27 05:27:07;;;;;;;0.50;0.50;;;8.90;99.90;;;;;;5084280;28;20448;-83
2022/09/27 05:29:36;;;;;;;0.60;0.60;;;8.90;99.90;;;;;;5090353;28;20092;-84
2022/09/27 05:32:02;;;;;;;0.45;0.45;;;8.90;99.90;;;;;;5091947;28;20062;-85
2022/09/27 05:34:30;;;;;;;;;;;8.90;99.90;;;;;;5083719;28;20044;-86
2022/09/27 05:36:55;;;;;;;;;;;8.90;99.90;;;;;;5082401;28;19916;-86
2022/09/27 05:39:21;;;;;;;0.40;0.40;;;8.80;99.90;;;;;;5080073;28;19966;-87
2022/09/27 05:41:49;;;;;;;0.60;0.60;;;8.80;99.90;;;;;;5069144;28;20127;-87
2022/09/27 05:44:15;;;;;;;1.95;1.85;;;8.80;99.90;;;;;;5089722;28;20040;-87
2022/09/27 05:46:48;;;;;;;0.50;0.50;;;8.80;99.90;;;;;;5087619;28;20036;-86
2022/09/27 05:49:14;;;;;;;0.40;0.40;;;8.80;99.90;;;;;;5052609;28;20477;-87
2022/09/27 05:51:40;;;;;;;;;;;8.80;99.90;;;;;;5072602;28;20079;-87
2022/09/27 05:54:06;;;;;;;0.47;0.47;;;8.80;99.90;;;;;;5074641;28;19919;-86
2022/09/27 05:56:32;;;;;;;0.43;0.43;;;9.00;99.90;;;;;;5073020;28;20051;-86
2022/09/27 05:58:57;;;;;;;0.50;0.50;;;8.80;99.90;;;;;;5051885;28;20079;-86
2022/09/27 06:01:25;;;;;;;0.52;0.52;;;9.30;99.90;;;;;;5086542;28;20043;-85
2022/09/27 06:03:51;;;;;;;0.57;0.57;;;8.80;99.90;;;;;;5069355;28;20036;-86
2022/09/27 06:06:17;;;;;;;0.50;0.50;;;8.80;99.90;;;;;;5087376;28;20040;-86
2022/09/27 06:08:44;;;;;;;0.50;0.50;;;8.80;99.90;;;;;;5091390;28;20097;-85
2022/09/27 06:11:13;;;;;;;0.43;0.43;;;8.90;99.90;;;;;;5080400;28;20539;-85
2022/09/27 06:13:39;;;;;;;0.50;0.50;;;8.80;99.90;;;;;;5089168;28;20044;-85
2022/09/27 06:16:05;;;;;;;;;;;8.80;99.90;;;;;;5043647;28;20039;-86
2022/09/27 06:18:31;;;;;;;0.93;0.93;;;8.80;99.90;;;;;;5057126;28;20313;-84
2022/09/27 06:21:05;;;;;;;0.60;0.60;;;8.80;99.90;;;;;;5068656;28;20143;-85
2022/09/27 06:23:31;;;;;;;0.73;0.73;;;8.80;99.90;;;;;;5082036;28;20066;-86
2022/09/27 06:26:02;;;;;;;0.50;0.50;;;8.80;99.90;;;;;;5068869;28;20032;-85
2022/09/27 06:28:28;;;;;;;0.60;0.60;;;8.90;99.90;;;;;;5077603;28;20105;-85
2022/09/27 06:30:54;;;;;;;0.47;0.47;;;8.90;99.90;;;;;;5082874;28;20052;-85
2022/09/27 06:33:21;;;;;;;0.60;0.60;;;8.90;99.90;;;;;;5062383;28;20565;-85
2022/09/27 06:35:48;;;;;;;0.52;0.52;;;9.00;99.90;;;;;;5049028;28;20044;-85
2022/09/27 06:38:20;;;;;;;0.60;0.60;;;9.00;99.90;;;;;;5076650;28;20050;-84
2022/09/27 06:40:46;;;;;;;0.50;0.50;;;9.00;99.90;;;;;;5073050;28;20098;-84
2022/09/27 06:43:14;;;;;;;0.60;0.60;;;9.10;99.90;;;;;;5076646;28;20111;-85
2022/09/27 06:45:41;;;;;;;0.30;0.30;;;9.10;99.90;;;;;;5079524;28;20127;-86
2022/09/27 06:48:09;;;;;;;0.45;0.45;;;9.10;99.90;;;;;;5054684;28;20075;-85
2022/09/27 06:50:39;;;;;;;0.40;0.40;;;9.10;99.90;;;;;;5065245;28;20050;-84
2022/09/27 06:53:07;;;;;;;0.40;0.40;;;9.10;99.90;;;;;;5051344;28;20044;-84
2022/09/27 06:55:33;;;;;;;0.40;0.40;;;9.10;99.90;;;;;;5081770;28;20040;-84
2022/09/27 07:00:47;;;;;;;0.40;0.40;;;9.10;99.90;;;;;;5078963;28;19924;-87
2022/09/27 07:03:14;;;;;;;0.50;0.50;;;9.10;99.90;;;;;;5073662;28;20152;-85
2022/09/27 07:05:42;;;;;;;1.83;1.73;;;9.20;99.90;;;;;;5069582;28;20036;-85
2022/09/27 07:08:11;;;;;;;0.50;0.50;;;9.20;99.90;;;;;;5072692;28;20165;-84
2022/09/27 07:10:38;;;;;;;0.50;0.50;;;9.20;99.90;;;;;;5060580;28;20041;-84
2022/09/27 07:13:06;;;;;;;0.50;0.50;;;9.30;99.90;;;;;;5076002;28;20160;-85
2022/09/27 07:15:32;;;;;;;0.40;0.40;;;9.30;99.90;;;;;;5063561;28;20078;-85
2022/09/27 07:17:58;;;;;;;0.50;0.50;;;9.30;99.90;;;;;;5061979;28;20048;-85
2022/09/27 07:20:25;;;;;;;0.40;0.40;;;9.30;99.90;;;;;;5078317;28;20063;-86
2022/09/27 07:22:52;;;;;;;0.40;0.40;;;9.30;99.90;;;;;;5086021;28;20044;-84
2022/09/27 07:25:18;;;;;;;0.50;0.50;;;9.30;99.90;;;;;;5080584;28;20035;-85
2022/09/27 07:27:45;;;;;;;0.40;0.40;;;9.40;99.90;;;;;;5084475;28;20450;-86
2022/09/27 07:30:11;;;;;;;0.50;0.50;;;9.40;99.90;;;;;;5046838;28;20039;-84
2022/09/27 07:32:37;;;;;;;0.45;0.45;;;9.40;99.90;;;;;;5077242;28;20044;-85
2022/09/27 07:35:05;;;;;;;0.32;0.32;;;9.40;99.90;;;;;;5066724;28;20175;-86
2022/09/27 07:37:32;;;;;;;0.50;0.50;;;9.60;99.90;;;;;;5076808;28;20040;-85
2022/09/27 07:39:59;;;;;;;0.50;0.50;;;9.70;99.90;;;;;;5071589;28;20087;-86
2022/09/27 07:42:24;;;;;;;0.40;0.40;;;9.90;99.90;;;;;;5073773;28;20044;-88
2022/09/27 07:44:50;;;;;;;0.40;0.40;;;10.10;99.90;;;;;;5079973;28;20044;-86
2022/09/27 07:47:18;;;;;;;0.35;0.35;;;10.20;99.90;;;;;;5068053;28;20028;-86
2022/09/27 07:49:44;;;;;;;0.50;0.50;;;10.40;99.90;;;;;;5088568;28;20071;-85
2022/09/27 07:52:10;;;;;;;0.40;0.40;;;10.50;99.90;;;;;;5024908;28;20155;-85
2022/09/27 07:54:36;;;;;;;0.50;0.50;;;10.50;99.90;;;;;;5073154;28;20443;-84
2022/09/27 07:57:02;;;;;;;0.40;0.40;;;10.50;99.90;;;;;;5056310;28;20044;-84
2022/09/27 07:59:28;;;;;;;0.45;0.45;;;10.50;99.90;;;;;;5079109;28;20044;-85
2022/09/27 08:01:54;;;;;;;0.40;0.40;;;10.40;99.90;;;;;;5070473;28;20222;-86
2022/09/27 08:04:20;;;;;;;0.30;0.30;;;10.30;99.90;;;;;;5070721;28;20048;-84
2022/09/27 08:06:46;;;;;;;;;;;10.20;99.90;;;;;;5035460;28;21337;-85
2022/09/27 08:09:12;;;;;;;0.50;0.50;;;10.10;99.90;;;;;;5067053;28;19943;-85
2022/09/27 08:11:38;;;;;;;0.40;0.40;;;9.80;99.90;;;;;;5050501;28;20048;-85
2022/09/27 08:14:04;;;;;;;0.50;0.50;;;9.90;99.90;;;;;;5071723;28;20143;-84
2022/09/27 08:16:32;;;;;;;0.45;0.45;;;9.90;99.90;;;;;;5055537;28;20127;-86
2022/09/27 08:18:58;;;;;;;0.40;0.40;;;9.80;99.90;;;;;;5069171;28;20798;-86
2022/09/27 08:21:24;;;;;;;0.30;0.30;;;9.90;99.90;;;;;;5052701;28;20053;-86
2022/09/27 08:23:49;;;;;;;0.40;0.40;;;9.90;99.90;;;;;;5059013;28;20027;-84
2022/09/27 08:26:15;;;;;;;0.30;0.30;;;10.10;99.90;;;;;;5060244;28;20100;-86
2022/09/27 08:28:41;;;;;;;0.47;0.47;;;10.20;99.90;;;;;;5073575;28;20374;-83
2022/09/27 08:31:07;;;;;;;0.40;0.40;;;10.40;99.90;;;;;;5066737;28;20076;-84
2022/09/27 08:33:32;;;;;;;0.40;0.40;;;10.50;99.90;;;;;;5067812;28;20047;-85
2022/09/27 08:35:59;;;;;;;;;;;10.60;99.90;;;;;;5067885;28;20074;-83
2022/09/27 08:38:24;;;;;;;0.47;0.47;;;10.60;99.90;;;;;;5069238;28;19927;-84
2022/09/27 08:40:56;;;;;;;0.43;0.43;;;10.70;99.90;;;;;;5055060;28;20062;-86
2022/09/27 08:43:40;;;;;;;0.40;0.40;;;10.80;99.90;;;;;;5063151;28;20485;-84
2022/09/27 08:46:12;;;;;;;0.50;0.50;;;10.80;99.90;;;;;;5081748;28;20043;-85
2022/09/27 08:48:38;;;;;;;0.40;0.40;;;10.80;99.90;;;;;;5081446;28;20043;-83
2022/09/27 08:51:09;;;;;;;0.30;0.30;;;10.90;99.90;;;;;;5054532;28;20127;-83
2022/09/27 08:53:56;;;;;;;0.40;0.40;;;11.00;99.90;;;;;;5069586;28;20050;-83
2022/09/27 08:56:22;;;;;;;0.40;0.40;;;11.00;99.90;;;;;;5087944;28;20132;-83
2022/09/27 08:59:13;;;;;;;0.28;0.28;;;11.00;99.90;;;;;;5050879;28;20051;-82
2022/09/27 09:01:40;;;;;;;0.40;0.40;;;11.00;99.90;;;;;;5103758;28;20048;-87
2022/09/27 09:04:07;;;;;;;0.80;0.77;;;10.80;99.90;;;;;;5048986;28;20078;-88
2022/09/27 09:06:44;;;;;;;0.40;0.40;;;10.70;99.90;;;;;;5079237;28;20109;-87
2022/09/27 09:09:26;;;;;;;0.50;0.50;;;10.60;99.90;;;;;;5082524;28;20036;-89
2022/09/27 09:12:48;;;;;;;0.40;0.40;;;10.50;99.90;;;;;;5081130;28;20048;-84
2022/09/27 09:15:57;;;;;;;0.40;0.40;;;10.60;99.90;;;;;;5075136;28;20069;-86
2022/09/27 09:18:33;;;;;;;0.40;0.40;;;10.70;99.90;;;;;;5078866;28;20036;-86
2022/09/27 09:21:07;;;;;;;0.50;0.50;;;10.70;99.90;;;;;;5069819;28;20454;-87
2022/09/27 09:23:52;;;;;;;0.40;0.40;;;10.60;99.90;;;;;;5067355;28;20032;-89
2022/09/27 09:26:21;;;;;;;0.40;0.40;;;10.60;99.90;;;;;;5080085;28;20085;-87
2022/09/27 09:29:20;;;;;;;0.40;0.40;;;10.60;99.90;;;;;;5090618;28;20076;-90
2022/09/27 09:32:23;;;;;;;0.40;0.40;;;10.50;99.90;;;;;;5082019;28;20123;-89
2022/09/27 09:34:58;;;;;;;0.32;0.32;;;10.50;99.90;;;;;;5088687;28;20051;-89
2022/09/27 09:37:46;;;;;;;1.45;1.35;;;10.50;99.90;;;;;;5082234;28;20040;-88
2022/09/27 09:40:37;;;;;;;0.47;0.47;;;10.50;99.90;;;;;;5073254;28;20248;-89
2022/09/27 09:43:12;;;;;;;0.40;0.40;;;10.40;99.90;;;;;;5081625;28;20060;-89
2022/09/27 09:45:46;;;;;;;0.40;0.40;;;10.40;99.90;;;;;;5081659;28;20428;-89
2022/09/27 09:48:31;;;;;;;0.40;0.40;;;10.40;99.90;;;;;;5086707;28;20400;-89
2022/09/27 09:51:01;;;;;;;0.30;0.30;;;10.30;99.90;;;;;;5066217;28;20041;-88
2022/09/27 09:53:38;;;;;;;0.43;0.43;;;10.40;99.90;;;;;;5083833;28;20079;-88
2022/09/27 09:56:17;;;;;;;0.70;0.70;;;10.30;99.90;;;;;;5087901;28;20075;-89
2022/09/27 09:59:04;;;;;;;0.50;0.50;;;10.30;99.90;;;;;;5087024;28;20048;-88
2022/09/27 10:01:49;;;;;;;0.40;0.40;;;10.40;99.90;;;;;;5075665;28;20040;-86
2022/09/27 10:04:31;;;;;;;0.43;0.43;;;10.30;99.90;;;;;;5085739;28;20051;-89
2022/09/27 10:06:59;;;;;;;0.30;0.30;;;10.30;99.90;;;;;;5071057;28;20062;-90
2022/09/27 10:09:27;;;;;;;0.40;0.40;;;10.30;99.90;;;;;;5093574;28;20395;-86
2022/09/27 10:11:53;;;;;;;0.40;0.40;;;10.40;99.90;;;;;;5097410;28;20036;-88
2022/09/27 10:14:20;;;;;;;0.43;0.43;;;10.40;99.90;;;;;;5078777;28;20398;-88
2022/09/27 10:16:56;;;;;;;0.50;0.50;;;10.50;99.90;;;;;;5071278;28;20044;-89
2022/09/27 10:19:29;;;;;;;0.45;0.45;;;10.60;99.90;;;;;;5081385;28;20371;-86
2022/09/27 10:22:09;;;;;;;0.40;0.40;;;10.70;99.90;;;;;;5082573;28;20512;-86
2022/09/27 10:24:56;;;;;;;0.40;0.40;;;10.80;99.90;;;;;;5068007;28;20040;-86
2022/09/27 10:27:25;;;;;;;0.40;0.40;;;10.80;99.90;;;;;;5074679;28;20524;-87
2022/09/27 10:29:58;;;;;;;;;;;10.90;99.90;;;;;;5059890;28;20227;-85
2022/09/27 10:32:35;;;;;;;0.32;0.32;;;10.90;99.90;;;;;;5082728;28;19924;-85
2022/09/27 10:35:40;;;;;;;0.30;0.30;;;11.00;99.90;;;;;;5083297;28;20035;-84
2022/09/27 10:38:15;;;;;;;0.40;0.40;;;11.00;99.90;;;;;;5079923;28;20595;-83
2022/09/27 10:40:41;;;;;;;0.50;0.50;;;11.10;99.90;;;;;;5076106;28;20048;-85
2022/09/27 10:43:45;;;;;;;0.40;0.40;;;11.20;99.90;;;;;;5072111;28;20051;-83
2022/09/27 10:46:19;;;;;;;0.47;0.47;;;11.30;99.90;;;;;;5080416;28;20445;-85
2022/09/27 10:48:45;;;;;;;0.50;0.50;;;11.50;99.90;;;;;;5074777;28;20096;-83
2022/09/27 10:51:38;;;;;;;0.50;0.50;;;11.60;99.90;;;;;;5087686;28;20044;-83
2022/09/27 10:54:04;;;;;;;0.40;0.40;;;11.80;99.90;;;;;;5077529;28;20066;-82
2022/09/27 10:56:31;;;;;;;;;;;11.80;99.90;;;;;;5074441;28;20086;-84
2022/09/27 10:58:58;;;;;;;0.50;0.50;;;11.80;99.90;;;;;;5085526;28;20292;-82
2022/09/27 11:01:26;;;;;;;0.38;0.38;;;11.70;99.90;;;;;;5078273;28;20418;-82
2022/09/27 11:03:55;;;;;;;1.00;0.95;;;11.60;99.90;;;;;;5057509;28;20043;-84
2022/09/27 11:06:21;;;;;;;0.40;0.40;;;11.40;99.90;;;;;;5073263;28;20046;-82
2022/09/27 11:08:49;;;;;;;0.50;0.50;;;11.40;99.90;;;;;;5074563;28;20036;-82
2022/09/27 11:11:19;;;;;;;0.40;0.40;;;11.30;99.90;;;;;;5085183;28;20056;-83
2022/09/27 11:13:57;;;;;;;0.40;0.40;;;11.10;99.90;;;;;;5071362;28;20051;-84
2022/09/27 11:16:43;;;;;;;0.30;0.30;;;11.00;99.90;;;;;;5075994;28;20047;-84
2022/09/27 11:19:30;;;;;;;0.40;0.40;;;10.80;99.90;;;;;;5060168;28;20521;-84
2022/09/27 11:21:56;;;;;;;0.40;0.40;;;10.60;99.90;;;;;;5073814;28;20516;-85
2022/09/27 11:24:34;;;;;;;0.50;0.50;;;10.60;99.90;;;;;;5074223;28;20056;-84
2022/09/27 11:27:37;;;;;;;0.40;0.40;;;10.60;99.90;;;;;;5083106;28;20051;-84
2022/09/27 11:30:12;;;;;;;0.40;0.40;;;10.60;99.90;;;;;;5056899;28;20048;-81
2022/09/27 11:33:27;;;;;;;0.45;0.45;;;10.50;99.90;;;;;;5074070;28;20040;-84
2022/09/27 11:36:12;;;;;;;0.40;0.40;;;10.70;99.90;;;;;;5078014;28;20390;-83
2022/09/27 11:38:56;;;;;;;0.50;0.50;;;10.70;99.90;;;;;;5066950;28;20140;-84
2022/09/27 11:41:50;;;;;;;0.30;0.30;;;10.60;99.90;;;;;;5058191;28;20048;-84
2022/09/27 11:44:45;;;;;;;0.40;0.40;;;10.70;99.90;;;;;;5083784;28;20119;-83
2022/09/27 11:47:20;;;;;;;0.50;0.50;;;10.80;99.90;;;;;;5091914;28;20095;-83
2022/09/27 11:50:07;;;;;;;0.65;0.65;;;11.00;99.90;;;;;;5082488;28;20143;-84
2022/09/27 11:52:59;;;;;;;0.40;0.40;;;11.30;99.90;;;;;;5077959;28;20054;-84
2022/09/27 11:55:49;;;;;;;0.40;0.40;;;11.90;99.90;;;;;;5062220;28;20082;-83
2022/09/27 11:58:30;;;;;;;0.25;0.25;;;11.50;99.90;;;;;;5076891;28;20531;-82
2022/09/27 12:01:12;;;;;;;0.28;0.28;;;11.30;99.90;;;;;;5059135;28;20051;-83
2022/09/27 12:04:16;;;;;;;0.32;0.32;;;10.90;99.90;;;;;;5074514;28;20052;-84
2022/09/27 12:07:06;;;;;;;0.40;0.40;;;10.60;99.90;;;;;;5071875;28;20040;-83
2022/09/27 12:09:38;;;;;;;0.40;0.40;;;10.50;99.90;;;;;;5069713;28;20044;-82
2022/09/27 12:12:22;;;;;;;0.30;0.30;;;10.60;99.90;;;;;;5073127;28;20043;-82
2022/09/27 12:14:52;;;;;;;0.40;0.40;;;10.70;99.90;;;;;;5075360;28;20522;-82
2022/09/27 12:17:33;;;;;;;0.40;0.40;;;11.00;99.90;;;;;;5057389;28;20074;-85
2022/09/27 12:20:06;;;;;;;0.35;0.35;;;11.20;99.90;;;;;;5075046;28;20071;-82
2022/09/27 12:22:51;;;;;;;0.20;0.20;;;11.30;99.90;;;;;;5077153;28;20047;-83
2022/09/27 12:25:18;;;;;;;0.20;0.20;;;11.30;99.90;;;;;;5073858;28;20489;-83
2022/09/27 12:28:05;;;;;;;0.40;0.40;;;11.30;99.90;;;;;;5075062;28;20424;-83
2022/09/27 12:30:33;;;;;;;;;;;11.20;99.90;;;;;;5072521;28;20153;-83
2022/09/27 12:33:01;;;;;;;;;;;11.30;99.90;;;;;;5054949;28;19919;-84
2022/09/27 12:35:30;;;;;;;0.40;0.40;;;11.20;99.90;;;;;;5075808;28;19927;-82
2022/09/27 12:38:02;;;;;;;0.30;0.30;;;11.20;99.90;;;;;;5076380;28;20043;-83
2022/09/27 12:40:34;;;;;;;0.40;0.40;;;11.20;99.90;;;;;;5078932;28;20032;-84
2022/09/27 12:43:26;;;;;;;0.30;0.30;;;11.20;99.90;;;;;;5078489;28;20039;-84
2022/09/27 12:46:10;;;;;;;0.30;0.30;;;11.20;99.90;;;;;;5081488;28;20035;-84
2022/09/27 12:49:04;;;;;;;0.40;0.40;;;11.20;99.90;;;;;;5064757;28;20032;-85
2022/09/27 12:51:47;;;;;;;0.40;0.40;;;11.30;99.90;;;;;;5082561;28;20465;-85
2022/09/27 12:54:22;;;;;;;0.30;0.30;;;11.40;99.90;;;;;;5083430;28;20047;-83
2022/09/27 12:57:19;;;;;;;0.50;0.50;;;11.60;99.90;;;;;;5082313;28;20343;-84
2022/09/27 12:59:54;;;;;;;0.47;0.47;;;11.70;99.90;;;;;;5081173;28;20035;-85
2022/09/27 13:02:25;;;;;;;0.30;0.30;;;11.70;99.90;;;;;;5081342;28;21104;-85
2022/09/27 13:05:06;;;;;;;0.30;0.30;;;11.90;99.90;;;;;;5080850;28;20028;-84
2022/09/27 13:07:37;;;;;;;0.30;0.30;;;12.10;99.90;;;;;;5066455;28;20462;-83
2022/09/27 13:10:15;;;;;;;0.40;0.40;;;12.30;99.90;;;;;;5078228;28;20067;-84
2022/09/27 13:12:50;;;;;;;0.30;0.30;;;12.50;99.90;;;;;;5063258;28;20540;-84
2022/09/27 13:15:32;;;;;;;0.40;0.40;;;12.60;99.90;;;;;;5083564;28;20051;-83
2022/09/27 13:18:02;;;;;;;0.20;0.20;;;12.80;99.90;;;;;;5063366;28;20370;-84
2022/09/27 13:20:34;;;;;;;0.40;0.40;;;12.90;99.90;;;;;;5079742;28;20148;-83
2022/09/27 13:23:03;;;;;;;0.30;0.30;;;13.00;99.90;;;;;;5073791;28;20507;-83
2022/09/27 13:25:54;;;;;;;0.40;0.40;;;12.80;99.90;;;;;;5078207;28;20089;-84
2022/09/27 13:28:30;;;;;;;0.32;0.32;;;12.60;99.90;;;;;;5074803;28;20050;-83
2022/09/27 13:31:10;;;;;;;0.20;0.20;;;12.50;99.90;;;;;;5069688;28;20083;-84
2022/09/27 13:33:45;;;;;;;0.30;0.30;;;12.40;99.90;;;;;;5066054;28;20105;-83
2022/09/27 13:36:28;;;;;;;0.30;0.30;;;12.30;99.90;;;;;;5051675;28;20499;-84